Appleton, Illinois
Current Conditions -  °F | °C
As of 10:55 AM on Thursday 27 Nov 2014 (Local Time) from KGBG Reporting Station
Scattered Clouds Scattered Clouds  
Wind Chill:   Ceiling: Unl
Heat Index: 21°   Visibility: 10mi
Dew Point: 17°   Wind: 15mph
Humidity: 83%   Direction: 290°WNW
Pressure: 30.44"   Gusts: 22mph
Location:  40.9602°N, 90.1517°W
Report Text: KGBG 271655Z AUTO 29013G19KT 10SM SCT011 M06/M08 A3044 RMK AO2 T10601085
Loading
Personal Weather Stations






























Interactive Weather Map New forecast layout! Learn more

10-Day Weather Forecast

Advertisements
Track Severe Weather on mobile